sensor_id;sensor_type;location;lat;lon;timestamp;P1;durP1;ratioP1;P2;durP2;ratioP2
73113;SDS011;61301;51.956;5.876;2023-07-31T00:01:49;0.73;;;0.70;;
73113;SDS011;61301;51.956;5.876;2023-07-31T00:04:15;0.90;;;0.60;;
73113;SDS011;61301;51.956;5.876;2023-07-31T00:06:41;0.90;;;0.60;;
73113;SDS011;61301;51.956;5.876;2023-07-31T00:09:07;0.98;;;0.80;;
73113;SDS011;61301;51.956;5.876;2023-07-31T00:11:33;1.00;;;0.70;;
73113;SDS011;61301;51.956;5.876;2023-07-31T00:13:59;0.73;;;0.70;;
73113;SDS011;61301;51.956;5.876;2023-07-31T00:16:33;0.60;;;0.50;;
73113;SDS011;61301;51.956;5.876;2023-07-31T00:19:00;0.70;;;0.70;;
73113;SDS011;61301;51.956;5.876;2023-07-31T00:21:26;0.70;;;0.60;;
73113;SDS011;61301;51.956;5.876;2023-07-31T00:23:52;0.77;;;0.68;;
73113;SDS011;61301;51.956;5.876;2023-07-31T00:26:17;0.60;;;0.57;;
73113;SDS011;61301;51.956;5.876;2023-07-31T00:28:43;0.95;;;0.50;;
73113;SDS011;61301;51.956;5.876;2023-07-31T00:31:10;1.50;;;0.73;;
73113;SDS011;61301;51.956;5.876;2023-07-31T00:33:36;0.80;;;0.60;;
73113;SDS011;61301;51.956;5.876;2023-07-31T00:36:03;1.80;;;0.80;;
73113;SDS011;61301;51.956;5.876;2023-07-31T00:38:29;1.55;;;1.00;;
73113;SDS011;61301;51.956;5.876;2023-07-31T00:40:55;3.08;;;1.55;;
73113;SDS011;61301;51.956;5.876;2023-07-31T00:43:21;2.30;;;1.17;;
73113;SDS011;61301;51.956;5.876;2023-07-31T00:45:48;3.88;;;2.10;;
73113;SDS011;61301;51.956;5.876;2023-07-31T00:48:14;5.38;;;2.30;;
73113;SDS011;61301;51.956;5.876;2023-07-31T00:50:40;3.10;;;2.40;;
73113;SDS011;61301;51.956;5.876;2023-07-31T00:53:06;4.18;;;2.30;;
73113;SDS011;61301;51.956;5.876;2023-07-31T00:55:32;6.35;;;3.90;;
73113;SDS011;61301;51.956;5.876;2023-07-31T00:57:59;9.80;;;4.13;;
73113;SDS011;61301;51.956;5.876;2023-07-31T01:00:25;9.52;;;4.07;;
73113;SDS011;61301;51.956;5.876;2023-07-31T01:02:51;15.55;;;6.82;;
73113;SDS011;61301;51.956;5.876;2023-07-31T01:05:25;21.00;;;7.85;;
73113;SDS011;61301;51.956;5.876;2023-07-31T01:08:36;19.38;;;7.15;;
73113;SDS011;61301;51.956;5.876;2023-07-31T01:11:25;21.50;;;8.20;;
73113;SDS011;61301;51.956;5.876;2023-07-31T01:13:54;17.65;;;8.73;;
73113;SDS011;61301;51.956;5.876;2023-07-31T01:16:20;18.30;;;8.48;;
73113;SDS011;61301;51.956;5.876;2023-07-31T01:18:46;19.10;;;8.90;;
73113;SDS011;61301;51.956;5.876;2023-07-31T01:24:35;18.92;;;8.25;;
73113;SDS011;61301;51.956;5.876;2023-07-31T01:27:13;15.15;;;7.63;;
73113;SDS011;61301;51.956;5.876;2023-07-31T01:29:47;14.88;;;6.57;;
73113;SDS011;61301;51.956;5.876;2023-07-31T01:32:18;14.93;;;6.63;;
73113;SDS011;61301;51.956;5.876;2023-07-31T01:34:45;13.13;;;5.97;;
73113;SDS011;61301;51.956;5.876;2023-07-31T01:37:12;19.83;;;8.23;;
73113;SDS011;61301;51.956;5.876;2023-07-31T01:39:38;17.38;;;7.85;;
73113;SDS011;61301;51.956;5.876;2023-07-31T01:42:04;14.57;;;6.93;;
73113;SDS011;61301;51.956;5.876;2023-07-31T01:44:30;14.27;;;6.22;;
73113;SDS011;61301;51.956;5.876;2023-07-31T01:46:56;14.13;;;6.78;;
73113;SDS011;61301;51.956;5.876;2023-07-31T01:49:24;18.65;;;8.50;;
73113;SDS011;61301;51.956;5.876;2023-07-31T01:51:50;16.20;;;6.72;;
73113;SDS011;61301;51.956;5.876;2023-07-31T01:54:16;19.73;;;7.40;;
73113;SDS011;61301;51.956;5.876;2023-07-31T01:56:42;22.17;;;7.70;;
73113;SDS011;61301;51.956;5.876;2023-07-31T01:59:08;17.40;;;7.35;;
73113;SDS011;61301;51.956;5.876;2023-07-31T02:01:35;16.80;;;7.32;;
73113;SDS011;61301;51.956;5.876;2023-07-31T02:04:01;20.88;;;7.15;;
73113;SDS011;61301;51.956;5.876;2023-07-31T02:06:27;14.57;;;6.55;;
73113;SDS011;61301;51.956;5.876;2023-07-31T02:08:53;20.02;;;7.80;;
73113;SDS011;61301;51.956;5.876;2023-07-31T02:11:19;16.27;;;6.85;;
73113;SDS011;61301;51.956;5.876;2023-07-31T02:13:45;17.00;;;6.38;;
73113;SDS011;61301;51.956;5.876;2023-07-31T02:16:10;15.15;;;6.03;;
73113;SDS011;61301;51.956;5.876;2023-07-31T02:18:36;13.30;;;6.57;;
73113;SDS011;61301;51.956;5.876;2023-07-31T02:21:03;15.52;;;6.60;;
73113;SDS011;61301;51.956;5.876;2023-07-31T02:23:29;15.73;;;6.00;;
73113;SDS011;61301;51.956;5.876;2023-07-31T02:25:55;15.02;;;6.47;;
73113;SDS011;61301;51.956;5.876;2023-07-31T02:28:21;12.57;;;6.20;;
73113;SDS011;61301;51.956;5.876;2023-07-31T02:30:47;9.70;;;5.78;;
73113;SDS011;61301;51.956;5.876;2023-07-31T02:33:14;11.10;;;5.65;;
73113;SDS011;61301;51.956;5.876;2023-07-31T02:35:41;11.00;;;4.57;;
73113;SDS011;61301;51.956;5.876;2023-07-31T02:38:07;15.10;;;5.90;;
73113;SDS011;61301;51.956;5.876;2023-07-31T02:40:33;13.00;;;5.80;;
73113;SDS011;61301;51.956;5.876;2023-07-31T02:42:59;13.52;;;4.90;;
73113;SDS011;61301;51.956;5.876;2023-07-31T02:45:25;12.05;;;5.35;;
73113;SDS011;61301;51.956;5.876;2023-07-31T02:47:52;15.23;;;6.10;;
73113;SDS011;61301;51.956;5.876;2023-07-31T02:50:18;13.93;;;6.05;;
73113;SDS011;61301;51.956;5.876;2023-07-31T02:52:44;13.82;;;5.32;;
73113;SDS011;61301;51.956;5.876;2023-07-31T02:55:10;14.07;;;6.05;;
73113;SDS011;61301;51.956;5.876;2023-07-31T02:57:36;11.88;;;5.85;;
73113;SDS011;61301;51.956;5.876;2023-07-31T03:00:02;17.38;;;6.65;;
73113;SDS011;61301;51.956;5.876;2023-07-31T03:02:31;11.43;;;5.22;;
73113;SDS011;61301;51.956;5.876;2023-07-31T03:04:58;13.10;;;6.05;;
73113;SDS011;61301;51.956;5.876;2023-07-31T03:07:25;17.40;;;7.25;;
73113;SDS011;61301;51.956;5.876;2023-07-31T03:09:51;14.32;;;5.68;;
73113;SDS011;61301;51.956;5.876;2023-07-31T03:12:17;13.07;;;5.82;;
73113;SDS011;61301;51.956;5.876;2023-07-31T03:14:45;18.20;;;6.07;;
73113;SDS011;61301;51.956;5.876;2023-07-31T03:17:11;14.00;;;5.88;;
73113;SDS011;61301;51.956;5.876;2023-07-31T03:19:37;13.00;;;6.25;;
73113;SDS011;61301;51.956;5.876;2023-07-31T03:22:04;11.90;;;5.75;;
73113;SDS011;61301;51.956;5.876;2023-07-31T03:24:30;12.98;;;6.60;;
73113;SDS011;61301;51.956;5.876;2023-07-31T03:26:56;16.25;;;6.38;;
73113;SDS011;61301;51.956;5.876;2023-07-31T03:29:22;17.13;;;6.63;;
73113;SDS011;61301;51.956;5.876;2023-07-31T03:31:48;11.68;;;5.82;;
73113;SDS011;61301;51.956;5.876;2023-07-31T03:34:14;14.52;;;6.50;;
73113;SDS011;61301;51.956;5.876;2023-07-31T03:36:40;15.27;;;6.22;;
73113;SDS011;61301;51.956;5.876;2023-07-31T03:39:06;13.43;;;6.40;;
73113;SDS011;61301;51.956;5.876;2023-07-31T03:41:32;16.75;;;6.20;;
73113;SDS011;61301;51.956;5.876;2023-07-31T03:43:58;15.43;;;6.00;;
73113;SDS011;61301;51.956;5.876;2023-07-31T03:46:24;11.43;;;5.38;;
73113;SDS011;61301;51.956;5.876;2023-07-31T03:48:50;15.82;;;6.32;;
73113;SDS011;61301;51.956;5.876;2023-07-31T03:51:17;17.63;;;6.47;;
73113;SDS011;61301;51.956;5.876;2023-07-31T03:53:43;13.07;;;5.63;;
73113;SDS011;61301;51.956;5.876;2023-07-31T03:56:10;14.65;;;6.50;;
73113;SDS011;61301;51.956;5.876;2023-07-31T03:58:36;13.50;;;5.82;;
73113;SDS011;61301;51.956;5.876;2023-07-31T04:01:03;13.20;;;6.43;;
73113;SDS011;61301;51.956;5.876;2023-07-31T04:03:29;15.45;;;5.93;;
73113;SDS011;61301;51.956;5.876;2023-07-31T04:05:55;10.45;;;5.32;;
73113;SDS011;61301;51.956;5.876;2023-07-31T04:08:22;14.63;;;6.20;;
73113;SDS011;61301;51.956;5.876;2023-07-31T04:10:48;10.60;;;5.28;;
73113;SDS011;61301;51.956;5.876;2023-07-31T04:13:14;12.23;;;4.85;;
73113;SDS011;61301;51.956;5.876;2023-07-31T04:15:41;10.55;;;5.38;;
73113;SDS011;61301;51.956;5.876;2023-07-31T04:18:07;13.48;;;5.60;;
73113;SDS011;61301;51.956;5.876;2023-07-31T04:20:33;12.40;;;5.15;;
73113;SDS011;61301;51.956;5.876;2023-07-31T04:22:59;10.57;;;4.70;;
73113;SDS011;61301;51.956;5.876;2023-07-31T04:25:25;12.88;;;5.47;;
73113;SDS011;61301;51.956;5.876;2023-07-31T04:27:51;12.93;;;4.97;;
73113;SDS011;61301;51.956;5.876;2023-07-31T04:30:17;12.43;;;5.30;;
73113;SDS011;61301;51.956;5.876;2023-07-31T04:32:43;12.15;;;5.15;;
73113;SDS011;61301;51.956;5.876;2023-07-31T04:35:10;12.07;;;5.63;;
73113;SDS011;61301;51.956;5.876;2023-07-31T04:37:36;13.07;;;5.90;;
73113;SDS011;61301;51.956;5.876;2023-07-31T04:40:02;11.07;;;4.90;;
73113;SDS011;61301;51.956;5.876;2023-07-31T04:42:28;16.95;;;6.28;;
73113;SDS011;61301;51.956;5.876;2023-07-31T04:44:54;14.77;;;6.45;;
73113;SDS011;61301;51.956;5.876;2023-07-31T04:47:20;15.52;;;5.60;;
73113;SDS011;61301;51.956;5.876;2023-07-31T04:49:46;13.45;;;6.03;;
73113;SDS011;61301;51.956;5.876;2023-07-31T04:52:12;13.88;;;5.53;;
73113;SDS011;61301;51.956;5.876;2023-07-31T04:54:38;11.07;;;4.95;;
73113;SDS011;61301;51.956;5.876;2023-07-31T04:57:03;12.60;;;5.30;;
73113;SDS011;61301;51.956;5.876;2023-07-31T04:59:30;10.93;;;5.00;;
73113;SDS011;61301;51.956;5.876;2023-07-31T05:01:57;10.60;;;4.97;;
73113;SDS011;61301;51.956;5.876;2023-07-31T05:04:23;11.55;;;5.65;;
73113;SDS011;61301;51.956;5.876;2023-07-31T05:06:49;12.63;;;5.60;;
73113;SDS011;61301;51.956;5.876;2023-07-31T05:09:15;14.20;;;5.57;;
73113;SDS011;61301;51.956;5.876;2023-07-31T05:11:41;11.85;;;5.22;;
73113;SDS011;61301;51.956;5.876;2023-07-31T05:14:11;11.48;;;5.65;;
73113;SDS011;61301;51.956;5.876;2023-07-31T05:16:37;12.15;;;5.45;;
73113;SDS011;61301;51.956;5.876;2023-07-31T05:19:03;10.02;;;5.10;;
73113;SDS011;61301;51.956;5.876;2023-07-31T05:21:32;12.32;;;5.70;;
73113;SDS011;61301;51.956;5.876;2023-07-31T05:23:58;16.42;;;4.97;;
73113;SDS011;61301;51.956;5.876;2023-07-31T05:26:24;10.48;;;4.80;;
73113;SDS011;61301;51.956;5.876;2023-07-31T05:28:50;12.13;;;5.50;;
73113;SDS011;61301;51.956;5.876;2023-07-31T05:31:16;10.60;;;5.40;;
73113;SDS011;61301;51.956;5.876;2023-07-31T05:33:42;11.38;;;4.82;;
73113;SDS011;61301;51.956;5.876;2023-07-31T05:36:08;9.13;;;4.85;;
73113;SDS011;61301;51.956;5.876;2023-07-31T05:38:34;13.07;;;5.38;;
73113;SDS011;61301;51.956;5.876;2023-07-31T05:41:00;12.52;;;5.13;;
73113;SDS011;61301;51.956;5.876;2023-07-31T05:43:26;12.23;;;4.78;;
73113;SDS011;61301;51.956;5.876;2023-07-31T05:45:52;10.93;;;4.45;;
73113;SDS011;61301;51.956;5.876;2023-07-31T05:48:18;9.85;;;4.88;;
73113;SDS011;61301;51.956;5.876;2023-07-31T05:50:44;9.48;;;4.30;;
73113;SDS011;61301;51.956;5.876;2023-07-31T05:53:11;10.80;;;5.35;;
73113;SDS011;61301;51.956;5.876;2023-07-31T05:55:37;11.80;;;5.18;;
73113;SDS011;61301;51.956;5.876;2023-07-31T05:58:03;13.05;;;4.57;;
73113;SDS011;61301;51.956;5.876;2023-07-31T06:00:29;10.90;;;5.15;;
73113;SDS011;61301;51.956;5.876;2023-07-31T06:02:55;14.48;;;5.38;;
73113;SDS011;61301;51.956;5.876;2023-07-31T06:05:22;11.93;;;4.50;;
73113;SDS011;61301;51.956;5.876;2023-07-31T06:07:48;9.98;;;4.70;;
73113;SDS011;61301;51.956;5.876;2023-07-31T06:10:14;10.15;;;4.47;;
73113;SDS011;61301;51.956;5.876;2023-07-31T06:12:40;12.93;;;4.97;;
73113;SDS011;61301;51.956;5.876;2023-07-31T06:15:06;6.05;;;3.67;;
73113;SDS011;61301;51.956;5.876;2023-07-31T06:17:32;9.88;;;4.18;;
73113;SDS011;61301;51.956;5.876;2023-07-31T06:19:58;10.93;;;4.25;;
73113;SDS011;61301;51.956;5.876;2023-07-31T06:22:24;10.80;;;5.68;;
73113;SDS011;61301;51.956;5.876;2023-07-31T06:24:50;8.38;;;4.57;;
73113;SDS011;61301;51.956;5.876;2023-07-31T06:27:16;9.25;;;4.50;;
73113;SDS011;61301;51.956;5.876;2023-07-31T06:29:42;8.93;;;3.90;;
73113;SDS011;61301;51.956;5.876;2023-07-31T06:32:08;9.10;;;4.20;;
73113;SDS011;61301;51.956;5.876;2023-07-31T06:34:34;10.27;;;4.68;;
73113;SDS011;61301;51.956;5.876;2023-07-31T06:37:00;8.68;;;3.78;;
73113;SDS011;61301;51.956;5.876;2023-07-31T06:39:26;8.85;;;3.92;;
73113;SDS011;61301;51.956;5.876;2023-07-31T06:41:52;7.28;;;3.58;;
73113;SDS011;61301;51.956;5.876;2023-07-31T06:44:19;6.70;;;3.80;;
73113;SDS011;61301;51.956;5.876;2023-07-31T06:46:46;6.47;;;3.40;;
73113;SDS011;61301;51.956;5.876;2023-07-31T06:49:12;9.50;;;3.63;;
73113;SDS011;61301;51.956;5.876;2023-07-31T06:51:40;7.88;;;3.67;;
73113;SDS011;61301;51.956;5.876;2023-07-31T06:54:07;5.95;;;3.20;;
73113;SDS011;61301;51.956;5.876;2023-07-31T06:56:34;5.30;;;3.17;;
73113;SDS011;61301;51.956;5.876;2023-07-31T06:59:00;7.10;;;2.78;;
73113;SDS011;61301;51.956;5.876;2023-07-31T07:01:26;5.03;;;2.80;;
73113;SDS011;61301;51.956;5.876;2023-07-31T07:03:53;4.28;;;2.58;;
73113;SDS011;61301;51.956;5.876;2023-07-31T07:06:19;4.45;;;2.78;;
73113;SDS011;61301;51.956;5.876;2023-07-31T07:08:45;3.47;;;2.20;;
73113;SDS011;61301;51.956;5.876;2023-07-31T07:11:11;2.95;;;1.90;;
73113;SDS011;61301;51.956;5.876;2023-07-31T07:13:37;4.88;;;2.30;;
73113;SDS011;61301;51.956;5.876;2023-07-31T07:16:03;3.38;;;1.85;;
73113;SDS011;61301;51.956;5.876;2023-07-31T07:18:29;3.67;;;1.77;;
73113;SDS011;61301;51.956;5.876;2023-07-31T07:20:56;3.67;;;2.05;;
73113;SDS011;61301;51.956;5.876;2023-07-31T07:23:23;2.47;;;1.50;;
73113;SDS011;61301;51.956;5.876;2023-07-31T07:25:50;3.13;;;1.73;;
73113;SDS011;61301;51.956;5.876;2023-07-31T07:28:17;1.80;;;1.33;;
73113;SDS011;61301;51.956;5.876;2023-07-31T07:30:43;2.33;;;1.42;;
73113;SDS011;61301;51.956;5.876;2023-07-31T07:33:08;1.80;;;1.08;;
73113;SDS011;61301;51.956;5.876;2023-07-31T07:35:35;1.38;;;1.00;;
73113;SDS011;61301;51.956;5.876;2023-07-31T07:38:04;0.93;;;0.82;;
73113;SDS011;61301;51.956;5.876;2023-07-31T07:40:30;2.55;;;1.02;;
73113;SDS011;61301;51.956;5.876;2023-07-31T07:42:56;2.05;;;1.20;;
73113;SDS011;61301;51.956;5.876;2023-07-31T07:45:22;1.85;;;1.00;;
73113;SDS011;61301;51.956;5.876;2023-07-31T07:47:48;0.90;;;0.50;;
73113;SDS011;61301;51.956;5.876;2023-07-31T07:50:14;1.77;;;1.00;;
73113;SDS011;61301;51.956;5.876;2023-07-31T07:52:40;1.38;;;0.95;;
73113;SDS011;61301;51.956;5.876;2023-07-31T07:55:06;1.15;;;0.80;;
73113;SDS011;61301;51.956;5.876;2023-07-31T07:57:32;2.42;;;0.95;;
73113;SDS011;61301;51.956;5.876;2023-07-31T07:59:58;0.95;;;0.82;;
73113;SDS011;61301;51.956;5.876;2023-07-31T08:02:24;1.33;;;0.88;;
73113;SDS011;61301;51.956;5.876;2023-07-31T08:04:50;1.75;;;0.70;;
73113;SDS011;61301;51.956;5.876;2023-07-31T08:07:16;2.20;;;0.80;;
73113;SDS011;61301;51.956;5.876;2023-07-31T08:09:42;0.90;;;0.80;;
73113;SDS011;61301;51.956;5.876;2023-07-31T08:12:08;1.13;;;1.02;;
73113;SDS011;61301;51.956;5.876;2023-07-31T08:14:34;0.90;;;0.70;;
73113;SDS011;61301;51.956;5.876;2023-07-31T08:17:01;1.17;;;0.90;;
73113;SDS011;61301;51.956;5.876;2023-07-31T08:19:27;2.17;;;0.70;;
73113;SDS011;61301;51.956;5.876;2023-07-31T08:21:53;2.13;;;0.95;;
73113;SDS011;61301;51.956;5.876;2023-07-31T08:24:19;1.83;;;1.45;;
73113;SDS011;61301;51.956;5.876;2023-07-31T08:26:46;2.25;;;1.50;;
73113;SDS011;61301;51.956;5.876;2023-07-31T08:29:12;1.70;;;1.10;;
73113;SDS011;61301;51.956;5.876;2023-07-31T08:31:38;1.63;;;1.20;;
73113;SDS011;61301;51.956;5.876;2023-07-31T08:34:04;1.63;;;1.25;;
73113;SDS011;61301;51.956;5.876;2023-07-31T08:36:30;2.33;;;1.50;;
73113;SDS011;61301;51.956;5.876;2023-07-31T08:38:56;1.75;;;1.55;;
73113;SDS011;61301;51.956;5.876;2023-07-31T08:41:22;1.85;;;1.40;;
73113;SDS011;61301;51.956;5.876;2023-07-31T08:43:51;2.28;;;1.60;;
73113;SDS011;61301;51.956;5.876;2023-07-31T08:46:17;3.58;;;1.42;;
73113;SDS011;61301;51.956;5.876;2023-07-31T08:48:45;1.75;;;1.65;;
73113;SDS011;61301;51.956;5.876;2023-07-31T08:51:14;3.67;;;1.92;;
73113;SDS011;61301;51.956;5.876;2023-07-31T08:53:40;2.08;;;1.70;;
73113;SDS011;61301;51.956;5.876;2023-07-31T08:56:06;1.80;;;1.70;;
73113;SDS011;61301;51.956;5.876;2023-07-31T08:58:33;2.55;;;2.30;;
73113;SDS011;61301;51.956;5.876;2023-07-31T09:01:01;2.58;;;1.75;;
73113;SDS011;61301;51.956;5.876;2023-07-31T09:03:28;3.03;;;1.70;;
73113;SDS011;61301;51.956;5.876;2023-07-31T09:05:59;1.70;;;1.50;;
73113;SDS011;61301;51.956;5.876;2023-07-31T09:08:26;3.20;;;1.98;;
73113;SDS011;61301;51.956;5.876;2023-07-31T09:10:55;2.75;;;1.77;;
73113;SDS011;61301;51.956;5.876;2023-07-31T09:13:32;1.90;;;1.67;;
73113;SDS011;61301;51.956;5.876;2023-07-31T09:15:59;2.15;;;1.70;;
73113;SDS011;61301;51.956;5.876;2023-07-31T09:18:25;2.15;;;1.88;;
73113;SDS011;61301;51.956;5.876;2023-07-31T09:21:04;3.28;;;2.13;;
73113;SDS011;61301;51.956;5.876;2023-07-31T09:23:45;2.10;;;1.60;;
73113;SDS011;61301;51.956;5.876;2023-07-31T09:26:36;1.83;;;1.73;;
73113;SDS011;61301;51.956;5.876;2023-07-31T09:29:06;2.63;;;1.95;;
73113;SDS011;61301;51.956;5.876;2023-07-31T09:31:43;2.15;;;1.98;;
73113;SDS011;61301;51.956;5.876;2023-07-31T09:34:10;3.78;;;2.67;;
73113;SDS011;61301;51.956;5.876;2023-07-31T09:36:40;2.53;;;2.30;;
73113;SDS011;61301;51.956;5.876;2023-07-31T09:39:11;2.55;;;2.33;;
73113;SDS011;61301;51.956;5.876;2023-07-31T09:41:46;3.25;;;2.72;;
73113;SDS011;61301;51.956;5.876;2023-07-31T09:44:13;2.30;;;2.00;;
73113;SDS011;61301;51.956;5.876;2023-07-31T09:46:39;3.45;;;2.88;;
73113;SDS011;61301;51.956;5.876;2023-07-31T09:49:13;4.13;;;3.03;;
73113;SDS011;61301;51.956;5.876;2023-07-31T09:51:40;4.63;;;3.42;;
73113;SDS011;61301;51.956;5.876;2023-07-31T09:54:11;5.78;;;3.75;;
73113;SDS011;61301;51.956;5.876;2023-07-31T09:56:41;5.35;;;3.33;;
73113;SDS011;61301;51.956;5.876;2023-07-31T09:59:17;4.18;;;3.47;;
73113;SDS011;61301;51.956;5.876;2023-07-31T10:01:47;4.10;;;3.45;;
73113;SDS011;61301;51.956;5.876;2023-07-31T10:04:15;5.30;;;3.50;;
73113;SDS011;61301;51.956;5.876;2023-07-31T10:06:46;4.30;;;3.20;;
73113;SDS011;61301;51.956;5.876;2023-07-31T10:09:15;5.88;;;3.85;;
73113;SDS011;61301;51.956;5.876;2023-07-31T10:11:47;5.75;;;4.20;;
73113;SDS011;61301;51.956;5.876;2023-07-31T10:14:19;4.93;;;3.83;;
73113;SDS011;61301;51.956;5.876;2023-07-31T10:16:46;4.95;;;4.45;;
73113;SDS011;61301;51.956;5.876;2023-07-31T10:19:13;6.03;;;3.83;;
73113;SDS011;61301;51.956;5.876;2023-07-31T10:21:39;5.03;;;3.97;;
73113;SDS011;61301;51.956;5.876;2023-07-31T10:24:06;6.40;;;3.67;;
73113;SDS011;61301;51.956;5.876;2023-07-31T10:26:33;7.35;;;4.22;;
73113;SDS011;61301;51.956;5.876;2023-07-31T10:29:03;6.05;;;4.15;;
73113;SDS011;61301;51.956;5.876;2023-07-31T10:31:30;9.55;;;5.68;;
73113;SDS011;61301;51.956;5.876;2023-07-31T10:33:57;10.55;;;5.30;;
73113;SDS011;61301;51.956;5.876;2023-07-31T10:36:28;6.40;;;4.40;;
73113;SDS011;61301;51.956;5.876;2023-07-31T10:38:55;6.03;;;4.13;;
73113;SDS011;61301;51.956;5.876;2023-07-31T10:41:31;6.85;;;4.65;;
73113;SDS011;61301;51.956;5.876;2023-07-31T10:44:00;7.45;;;4.68;;
73113;SDS011;61301;51.956;5.876;2023-07-31T10:46:29;5.15;;;4.07;;
73113;SDS011;61301;51.956;5.876;2023-07-31T10:48:59;7.25;;;4.90;;
73113;SDS011;61301;51.956;5.876;2023-07-31T10:51:32;8.15;;;4.70;;
73113;SDS011;61301;51.956;5.876;2023-07-31T10:54:10;7.25;;;3.95;;
73113;SDS011;61301;51.956;5.876;2023-07-31T10:56:40;5.43;;;3.88;;
73113;SDS011;61301;51.956;5.876;2023-07-31T10:59:11;5.35;;;4.18;;
73113;SDS011;61301;51.956;5.876;2023-07-31T11:01:51;5.32;;;4.38;;
73113;SDS011;61301;51.956;5.876;2023-07-31T11:04:24;6.45;;;4.15;;
73113;SDS011;61301;51.956;5.876;2023-07-31T11:06:58;6.13;;;4.18;;
73113;SDS011;61301;51.956;5.876;2023-07-31T11:09:32;5.40;;;3.60;;
73113;SDS011;61301;51.956;5.876;2023-07-31T11:11:59;4.75;;;3.70;;
73113;SDS011;61301;51.956;5.876;2023-07-31T11:14:25;4.80;;;3.75;;
73113;SDS011;61301;51.956;5.876;2023-07-31T11:16:51;6.07;;;4.03;;
73113;SDS011;61301;51.956;5.876;2023-07-31T11:19:21;4.00;;;3.53;;
73113;SDS011;61301;51.956;5.876;2023-07-31T11:21:49;5.78;;;3.42;;
73113;SDS011;61301;51.956;5.876;2023-07-31T11:24:16;4.55;;;4.15;;
73113;SDS011;61301;51.956;5.876;2023-07-31T11:26:51;5.90;;;4.75;;
73113;SDS011;61301;51.956;5.876;2023-07-31T11:29:20;7.28;;;4.18;;
73113;SDS011;61301;51.956;5.876;2023-07-31T11:31:52;4.32;;;3.47;;
73113;SDS011;61301;51.956;5.876;2023-07-31T11:34:18;5.88;;;4.30;;
73113;SDS011;61301;51.956;5.876;2023-07-31T11:36:52;5.85;;;4.13;;
73113;SDS011;61301;51.956;5.876;2023-07-31T11:39:20;4.10;;;3.15;;
73113;SDS011;61301;51.956;5.876;2023-07-31T11:41:46;6.68;;;3.50;;
73113;SDS011;61301;51.956;5.876;2023-07-31T11:44:12;6.47;;;3.53;;
73113;SDS011;61301;51.956;5.876;2023-07-31T11:46:38;3.63;;;3.33;;
73113;SDS011;61301;51.956;5.876;2023-07-31T11:49:04;5.55;;;3.72;;
73113;SDS011;61301;51.956;5.876;2023-07-31T11:51:31;5.75;;;3.20;;
73113;SDS011;61301;51.956;5.876;2023-07-31T11:53:57;5.07;;;3.78;;
73113;SDS011;61301;51.956;5.876;2023-07-31T11:56:25;4.20;;;3.80;;
73113;SDS011;61301;51.956;5.876;2023-07-31T11:58:53;4.65;;;3.05;;
73113;SDS011;61301;51.956;5.876;2023-07-31T12:01:22;4.82;;;3.05;;
73113;SDS011;61301;51.956;5.876;2023-07-31T12:03:50;4.22;;;3.00;;
73113;SDS011;61301;51.956;5.876;2023-07-31T12:06:16;5.07;;;3.65;;
73113;SDS011;61301;51.956;5.876;2023-07-31T12:08:42;4.15;;;3.30;;
73113;SDS011;61301;51.956;5.876;2023-07-31T12:11:08;4.68;;;2.90;;
73113;SDS011;61301;51.956;5.876;2023-07-31T12:13:35;3.83;;;2.58;;
73113;SDS011;61301;51.956;5.876;2023-07-31T12:16:02;4.07;;;2.42;;
73113;SDS011;61301;51.956;5.876;2023-07-31T12:18:30;6.75;;;3.58;;
73113;SDS011;61301;51.956;5.876;2023-07-31T12:21:00;5.82;;;3.08;;
73113;SDS011;61301;51.956;5.876;2023-07-31T12:23:29;7.30;;;3.40;;
73113;SDS011;61301;51.956;5.876;2023-07-31T12:28:29;6.20;;;3.47;;
73113;SDS011;61301;51.956;5.876;2023-07-31T12:30:59;5.78;;;3.80;;
73113;SDS011;61301;51.956;5.876;2023-07-31T12:33:32;6.82;;;3.80;;
73113;SDS011;61301;51.956;5.876;2023-07-31T12:36:03;5.25;;;3.45;;
73113;SDS011;61301;51.956;5.876;2023-07-31T12:38:30;4.80;;;3.78;;
73113;SDS011;61301;51.956;5.876;2023-07-31T12:40:56;7.70;;;3.60;;
73113;SDS011;61301;51.956;5.876;2023-07-31T12:43:22;3.80;;;2.75;;
73113;SDS011;61301;51.956;5.876;2023-07-31T12:45:48;4.80;;;2.92;;
73113;SDS011;61301;51.956;5.876;2023-07-31T12:48:14;4.68;;;3.45;;
73113;SDS011;61301;51.956;5.876;2023-07-31T12:50:40;4.78;;;3.35;;
73113;SDS011;61301;51.956;5.876;2023-07-31T12:53:06;5.47;;;3.33;;
73113;SDS011;61301;51.956;5.876;2023-07-31T12:55:32;4.97;;;3.50;;
73113;SDS011;61301;51.956;5.876;2023-07-31T12:58:00;4.55;;;4.10;;
73113;SDS011;61301;51.956;5.876;2023-07-31T13:00:26;5.85;;;4.35;;
73113;SDS011;61301;51.956;5.876;2023-07-31T13:02:52;4.50;;;4.07;;
73113;SDS011;61301;51.956;5.876;2023-07-31T13:05:18;4.60;;;3.85;;
73113;SDS011;61301;51.956;5.876;2023-07-31T13:07:46;5.70;;;3.78;;
73113;SDS011;61301;51.956;5.876;2023-07-31T13:10:13;5.07;;;3.97;;
73113;SDS011;61301;51.956;5.876;2023-07-31T13:12:38;4.05;;;3.38;;
73113;SDS011;61301;51.956;5.876;2023-07-31T13:15:05;5.30;;;3.58;;
73113;SDS011;61301;51.956;5.876;2023-07-31T13:17:32;4.00;;;3.60;;
73113;SDS011;61301;51.956;5.876;2023-07-31T13:19:59;4.75;;;3.47;;
73113;SDS011;61301;51.956;5.876;2023-07-31T13:22:25;4.78;;;3.78;;
73113;SDS011;61301;51.956;5.876;2023-07-31T13:24:52;4.07;;;3.35;;
73113;SDS011;61301;51.956;5.876;2023-07-31T13:27:21;3.55;;;3.03;;
73113;SDS011;61301;51.956;5.876;2023-07-31T13:29:51;7.90;;;4.22;;
73113;SDS011;61301;51.956;5.876;2023-07-31T13:32:17;5.13;;;3.67;;
73113;SDS011;61301;51.956;5.876;2023-07-31T13:34:45;4.20;;;3.80;;
73113;SDS011;61301;51.956;5.876;2023-07-31T13:37:12;4.15;;;3.30;;
73113;SDS011;61301;51.956;5.876;2023-07-31T13:39:38;3.85;;;3.20;;
73113;SDS011;61301;51.956;5.876;2023-07-31T13:42:05;5.70;;;3.58;;
73113;SDS011;61301;51.956;5.876;2023-07-31T13:44:34;4.10;;;2.78;;
73113;SDS011;61301;51.956;5.876;2023-07-31T13:47:00;4.05;;;3.35;;
73113;SDS011;61301;51.956;5.876;2023-07-31T13:49:27;4.47;;;3.20;;
73113;SDS011;61301;51.956;5.876;2023-07-31T13:51:54;3.53;;;3.20;;
73113;SDS011;61301;51.956;5.876;2023-07-31T13:54:20;4.85;;;3.95;;
73113;SDS011;61301;51.956;5.876;2023-07-31T13:56:49;4.75;;;3.58;;
73113;SDS011;61301;51.956;5.876;2023-07-31T13:59:15;3.42;;;3.10;;
73113;SDS011;61301;51.956;5.876;2023-07-31T14:01:43;5.80;;;3.30;;
73113;SDS011;61301;51.956;5.876;2023-07-31T14:04:09;4.57;;;3.80;;
73113;SDS011;61301;51.956;5.876;2023-07-31T14:06:35;5.03;;;4.00;;
73113;SDS011;61301;51.956;5.876;2023-07-31T14:09:01;3.80;;;3.40;;
73113;SDS011;61301;51.956;5.876;2023-07-31T14:11:28;7.70;;;4.32;;
73113;SDS011;61301;51.956;5.876;2023-07-31T14:13:56;6.05;;;4.05;;
73113;SDS011;61301;51.956;5.876;2023-07-31T14:16:23;5.28;;;4.40;;
73113;SDS011;61301;51.956;5.876;2023-07-31T14:18:52;6.03;;;4.28;;
73113;SDS011;61301;51.956;5.876;2023-07-31T14:21:19;9.10;;;4.63;;
73113;SDS011;61301;51.956;5.876;2023-07-31T14:23:45;6.45;;;3.50;;
73113;SDS011;61301;51.956;5.876;2023-07-31T14:26:11;4.85;;;3.55;;
73113;SDS011;61301;51.956;5.876;2023-07-31T14:28:37;8.10;;;5.10;;
73113;SDS011;61301;51.956;5.876;2023-07-31T14:31:03;8.43;;;4.82;;
73113;SDS011;61301;51.956;5.876;2023-07-31T14:33:30;5.55;;;4.30;;
73113;SDS011;61301;51.956;5.876;2023-07-31T14:35:55;5.78;;;4.35;;
73113;SDS011;61301;51.956;5.876;2023-07-31T14:38:21;6.72;;;4.63;;
73113;SDS011;61301;51.956;5.876;2023-07-31T14:40:48;9.98;;;4.80;;
73113;SDS011;61301;51.956;5.876;2023-07-31T14:43:14;7.32;;;4.32;;
73113;SDS011;61301;51.956;5.876;2023-07-31T14:45:40;7.53;;;4.82;;
73113;SDS011;61301;51.956;5.876;2023-07-31T14:48:06;4.85;;;3.65;;
73113;SDS011;61301;51.956;5.876;2023-07-31T14:50:32;7.18;;;4.15;;